createdAt,value
2019-03-24T00:02:26.150Z,15.90
2019-03-24T00:04:52.312Z,11.37
2019-03-24T00:07:18.502Z,11.00
2019-03-24T00:09:44.664Z,12.53
2019-03-24T00:12:10.828Z,10.77
2019-03-24T00:14:37.015Z,12.07
2019-03-24T00:17:03.375Z,8.93
2019-03-24T00:19:29.525Z,15.30
2019-03-24T00:21:55.719Z,8.00
2019-03-24T00:24:21.872Z,15.10
2019-03-24T00:26:48.040Z,7.43
2019-03-24T00:29:14.731Z,8.97
2019-03-24T00:31:40.882Z,11.10
2019-03-24T00:34:07.036Z,14.87
2019-03-24T00:36:33.230Z,13.60
2019-03-24T00:38:59.392Z,14.47
2019-03-24T00:41:25.551Z,11.63
2019-03-24T00:43:51.802Z,9.30
2019-03-24T00:46:17.964Z,5.93
2019-03-24T00:48:44.126Z,7.17
2019-03-24T00:51:10.413Z,5.53
2019-03-24T00:53:36.571Z,6.67
2019-03-24T00:56:03.077Z,8.27
2019-03-24T00:58:29.320Z,9.00
2019-03-24T01:00:55.480Z,6.93
2019-03-24T01:03:21.638Z,8.60
2019-03-24T01:05:47.838Z,8.77
2019-03-24T01:08:14.390Z,8.20
2019-03-24T01:10:40.541Z,6.70
2019-03-24T01:13:06.728Z,6.47
2019-03-24T01:15:32.891Z,11.33
2019-03-24T01:17:59.054Z,8.17
2019-03-24T01:20:25.243Z,12.40
2019-03-24T01:22:51.396Z,7.57
2019-03-24T01:25:17.556Z,13.03
2019-03-24T01:27:43.854Z,8.87
2019-03-24T01:30:10.406Z,11.10
2019-03-24T01:32:36.566Z,6.57
2019-03-24T01:35:04.661Z,6.53
2019-03-24T01:37:30.819Z,14.40
2019-03-24T01:39:56.975Z,8.70
2019-03-24T01:42:23.162Z,4.73
2019-03-24T01:44:51.004Z,12.80
2019-03-24T01:47:17.155Z,10.47
2019-03-24T01:49:43.365Z,12.87
2019-03-24T01:52:09.535Z,9.20
2019-03-24T01:54:35.693Z,10.57
2019-03-24T01:57:01.882Z,12.03
2019-03-24T01:59:28.040Z,12.83
2019-03-24T02:01:54.201Z,5.40
2019-03-24T02:04:20.389Z,6.57
2019-03-24T02:06:46.554Z,7.20
2019-03-24T02:09:12.814Z,3.43
2019-03-24T02:11:39.022Z,9.83
2019-03-24T02:14:05.276Z,4.53
2019-03-24T02:16:31.431Z,5.13
2019-03-24T02:18:57.620Z,7.40
2019-03-24T02:21:23.871Z,6.87
2019-03-24T02:23:50.018Z,21.63
2019-03-24T02:26:16.206Z,13.50
2019-03-24T02:28:42.367Z,11.87
2019-03-24T02:31:08.528Z,12.20
2019-03-24T02:33:34.716Z,12.17
2019-03-24T02:36:01.284Z,9.83
2019-03-24T02:38:27.439Z,10.57
2019-03-24T02:40:53.622Z,12.50
2019-03-24T02:43:19.782Z,9.27
2019-03-24T02:45:46.091Z,3.80
2019-03-24T02:48:12.278Z,8.17
2019-03-24T02:50:38.432Z,4.37
2019-03-24T02:53:04.588Z,6.57
2019-03-24T02:55:30.886Z,5.27
2019-03-24T02:57:57.051Z,15.13
2019-03-24T03:00:23.305Z,20.27
2019-03-24T03:02:49.498Z,6.40
2019-03-24T03:05:15.655Z,6.47
2019-03-24T03:07:41.824Z,4.00
2019-03-24T03:10:08.610Z,7.10
2019-03-24T03:12:34.757Z,3.93
2019-03-24T03:15:00.917Z,11.03
2019-03-24T03:17:27.118Z,6.13
2019-03-24T03:19:53.894Z,5.97
2019-03-24T03:22:20.433Z,7.53
2019-03-24T03:24:46.633Z,11.93
2019-03-24T03:27:12.782Z,4.73
2019-03-24T03:29:38.935Z,8.13
2019-03-24T03:32:05.154Z,6.87
2019-03-24T03:34:31.374Z,4.67
2019-03-24T03:36:57.534Z,5.17
2019-03-24T03:39:23.752Z,3.53
2019-03-24T03:41:50.009Z,3.07
2019-03-24T03:44:16.159Z,5.53
2019-03-24T03:46:52.553Z,7.13
2019-03-24T03:49:10.453Z,3.73
2019-03-24T03:51:36.611Z,9.77
2019-03-24T03:54:02.906Z,7.77
2019-03-24T03:56:29.062Z,6.87
2019-03-24T03:58:55.222Z,5.70
2019-03-24T04:01:21.418Z,13.40
2019-03-24T04:03:47.588Z,6.90
2019-03-24T04:06:13.730Z,5.97
2019-03-24T04:08:39.917Z,7.37
2019-03-24T04:11:06.176Z,7.83
2019-03-24T04:13:32.332Z,4.10
2019-03-24T04:15:58.520Z,5.23
2019-03-24T04:18:24.777Z,16.40
2019-03-24T04:20:50.935Z,13.47
2019-03-24T04:23:17.135Z,4.47
2019-03-24T04:25:43.301Z,6.50
2019-03-24T04:28:09.454Z,3.47
2019-03-24T04:30:35.692Z,8.60
2019-03-24T04:33:01.890Z,5.10
2019-03-24T04:35:28.052Z,12.17
2019-03-24T04:37:54.247Z,9.03
2019-03-24T04:40:20.400Z,4.47
2019-03-24T04:42:46.604Z,5.30
2019-03-24T04:45:12.759Z,6.20
2019-03-24T04:47:39.022Z,9.33
2019-03-24T04:50:06.288Z,4.90
2019-03-24T04:52:32.475Z,9.17
2019-03-24T04:54:58.642Z,14.63
2019-03-24T04:57:24.901Z,15.77
2019-03-24T04:59:51.086Z,23.50
2019-03-24T05:02:17.235Z,11.83
2019-03-24T05:04:43.412Z,16.67
2019-03-24T05:07:10.015Z,13.23
2019-03-24T05:09:36.177Z,17.73
2019-03-24T05:12:02.342Z,13.10
2019-03-24T05:14:28.530Z,11.20
2019-03-24T05:16:54.692Z,9.40
2019-03-24T05:19:20.856Z,16.17
2019-03-24T05:21:47.059Z,16.10
2019-03-24T05:24:13.211Z,14.13
2019-03-24T05:26:39.378Z,18.53
2019-03-24T05:29:05.605Z,13.50
2019-03-24T05:31:31.764Z,10.37
2019-03-24T05:33:57.926Z,6.67
2019-03-24T05:36:24.467Z,11.30
2019-03-24T05:38:50.635Z,16.23
2019-03-24T05:41:16.792Z,12.20
2019-03-24T05:43:43.013Z,14.27
2019-03-24T05:46:09.168Z,12.67
2019-03-24T05:48:35.379Z,11.60
2019-03-24T05:51:01.598Z,10.53
2019-03-24T05:53:27.756Z,13.57
2019-03-24T05:55:53.929Z,11.00
2019-03-24T05:58:20.158Z,17.07
2019-03-24T06:00:46.430Z,15.63
2019-03-24T06:03:12.599Z,19.60
2019-03-24T06:05:38.808Z,17.63
2019-03-24T06:08:04.968Z,7.57
2019-03-24T06:10:31.131Z,9.60
2019-03-24T06:12:57.337Z,9.50
2019-03-24T06:15:23.500Z,12.63
2019-03-24T06:17:49.666Z,7.00
2019-03-24T06:20:16.767Z,12.50
2019-03-24T06:22:42.925Z,14.97
2019-03-24T06:25:09.594Z,12.20
2019-03-24T06:27:35.792Z,11.67
2019-03-24T06:30:03.855Z,11.43
2019-03-24T06:32:30.009Z,11.07
2019-03-24T06:34:56.214Z,12.67
2019-03-24T06:37:22.385Z,12.43
2019-03-24T06:39:48.539Z,14.80
2019-03-24T06:42:14.749Z,14.17
2019-03-24T06:44:40.920Z,22.90
2019-03-24T06:47:07.074Z,27.97
2019-03-24T06:49:33.429Z,32.83
2019-03-24T06:51:59.716Z,23.97
2019-03-24T06:54:25.984Z,26.83
2019-03-24T06:56:52.210Z,26.07
2019-03-24T06:59:21.609Z,17.50
2019-03-24T07:01:47.879Z,19.70
2019-03-24T07:04:15.891Z,15.87
2019-03-24T07:06:48.672Z,13.37
2019-03-24T07:09:16.644Z,12.50
2019-03-24T07:11:45.712Z,14.37
2019-03-24T07:14:11.881Z,11.77
2019-03-24T07:16:38.035Z,9.53
2019-03-24T07:19:04.245Z,9.10
2019-03-24T07:21:30.424Z,12.93
2019-03-24T07:23:56.575Z,7.77
2019-03-24T07:26:22.768Z,8.60
2019-03-24T07:28:48.957Z,11.83
2019-03-24T07:31:15.107Z,8.63
2019-03-24T07:33:41.300Z,12.00
2019-03-24T07:36:07.458Z,10.70
2019-03-24T07:38:33.632Z,6.93
2019-03-24T07:40:59.937Z,15.43
2019-03-24T07:43:26.091Z,9.10
2019-03-24T07:45:52.248Z,9.93
2019-03-24T07:48:19.468Z,11.90
2019-03-24T07:50:46.831Z,7.13
2019-03-24T07:53:12.983Z,8.87
2019-03-24T07:55:39.179Z,7.10
2019-03-24T07:58:05.477Z,6.67
2019-03-24T08:00:33.775Z,11.83
2019-03-24T08:03:00.079Z,11.07
2019-03-24T08:05:26.241Z,9.87
2019-03-24T08:07:52.396Z,6.13
2019-03-24T08:10:18.588Z,8.57
2019-03-24T08:12:44.764Z,3.53
2019-03-24T08:15:10.896Z,3.97
2019-03-24T08:17:37.092Z,6.20
2019-03-24T08:20:05.458Z,7.83
2019-03-24T08:22:31.616Z,6.60
2019-03-24T08:24:57.823Z,5.67
2019-03-24T08:27:23.973Z,5.50
2019-03-24T08:29:50.134Z,5.57
2019-03-24T08:32:16.333Z,5.90
2019-03-24T08:34:42.592Z,6.80
2019-03-24T08:37:09.173Z,6.67
2019-03-24T08:39:35.420Z,6.73
2019-03-24T08:42:01.684Z,6.60
2019-03-24T08:44:27.838Z,8.10
2019-03-24T08:46:54.065Z,5.40
2019-03-24T08:49:20.229Z,7.00
2019-03-24T08:51:46.529Z,6.20
2019-03-24T08:54:12.843Z,7.97
2019-03-24T08:56:39.013Z,5.07
2019-03-24T08:59:05.172Z,5.73
2019-03-24T09:01:31.379Z,6.20
2019-03-24T09:03:57.533Z,6.73
2019-03-24T09:06:23.689Z,7.73
2019-03-24T09:08:50.005Z,10.73
2019-03-24T09:11:16.279Z,5.30
2019-03-24T09:13:42.447Z,7.12
2019-03-24T09:16:08.668Z,6.80
2019-03-24T09:18:34.827Z,7.13
2019-03-24T09:21:00.984Z,6.90
2019-03-24T09:23:27.294Z,8.37
2019-03-24T09:25:53.467Z,12.00
2019-03-24T09:28:19.606Z,5.53
2019-03-24T09:30:45.819Z,7.00
2019-03-24T09:33:11.980Z,7.67
2019-03-24T09:35:38.141Z,9.00
2019-03-24T09:38:04.543Z,6.93
2019-03-24T09:40:33.506Z,8.67
2019-03-24T09:43:00.660Z,9.50
2019-03-24T09:45:28.179Z,7.60
2019-03-24T09:47:54.436Z,7.83
2019-03-24T09:50:20.611Z,7.17
2019-03-24T09:52:46.980Z,7.63
2019-03-24T09:55:13.254Z,9.90
2019-03-24T09:57:39.412Z,8.50
2019-03-24T10:00:06.027Z,10.27
2019-03-24T10:02:32.286Z,9.10
2019-03-24T10:04:58.553Z,8.93
2019-03-24T10:07:24.873Z,8.47
2019-03-24T10:09:51.132Z,9.00
2019-03-24T10:12:17.396Z,9.20
2019-03-24T10:14:43.606Z,8.93
2019-03-24T10:17:09.765Z,7.70
2019-03-24T10:19:36.040Z,9.40
2019-03-24T10:22:02.651Z,11.33
2019-03-24T10:24:28.832Z,6.73
2019-03-24T10:26:55.096Z,10.73
2019-03-24T10:29:21.400Z,8.37
2019-03-24T10:31:47.558Z,9.03
2019-03-24T10:34:13.712Z,9.97
2019-03-24T10:36:40.021Z,9.60
2019-03-24T10:39:06.186Z,11.57
2019-03-24T10:41:32.446Z,11.07
2019-03-24T10:43:58.878Z,7.63
2019-03-24T10:46:25.040Z,9.27
2019-03-24T10:48:51.194Z,10.50
2019-03-24T10:51:17.489Z,8.40
2019-03-24T10:53:43.657Z,14.07
2019-03-24T10:56:09.815Z,9.90
2019-03-24T10:58:36.123Z,8.40
2019-03-24T11:01:02.456Z,8.93
2019-03-24T11:03:28.750Z,10.23
2019-03-24T11:05:54.961Z,12.10
2019-03-24T11:08:21.122Z,8.17
2019-03-24T11:10:47.378Z,10.53
2019-03-24T11:13:13.581Z,11.60
2019-03-24T11:15:39.745Z,10.63
2019-03-24T11:18:05.920Z,10.47
2019-03-24T11:20:32.125Z,10.03
2019-03-24T11:22:58.408Z,7.60
2019-03-24T11:25:24.676Z,9.70
2019-03-24T11:27:50.979Z,8.63
2019-03-24T11:30:18.843Z,10.57
2019-03-24T11:32:45.007Z,6.30
2019-03-24T11:35:11.208Z,8.33
2019-03-24T11:37:37.363Z,8.03
2019-03-24T11:40:07.362Z,7.43
2019-03-24T11:42:33.564Z,8.97
2019-03-24T11:44:59.841Z,9.00
2019-03-24T11:47:26.808Z,8.60
2019-03-24T11:49:53.324Z,6.97
2019-03-24T11:52:19.467Z,13.43
2019-03-24T11:54:45.679Z,11.17
2019-03-24T11:57:11.873Z,8.07
2019-03-24T11:59:38.161Z,8.27
2019-03-24T12:02:04.395Z,8.40
2019-03-24T12:04:30.619Z,7.20
2019-03-24T12:06:56.773Z,7.70
2019-03-24T12:09:22.927Z,5.80
2019-03-24T12:11:49.231Z,5.40
2019-03-24T12:14:15.399Z,6.07
2019-03-24T12:16:41.647Z,8.17
2019-03-24T12:19:07.857Z,6.13
2019-03-24T12:21:34.016Z,10.03
2019-03-24T12:24:00.192Z,6.30
2019-03-24T12:26:26.403Z,12.33
2019-03-24T12:28:52.560Z,11.83
2019-03-24T12:31:18.715Z,8.40
2019-03-24T12:33:44.917Z,5.77
2019-03-24T12:36:11.075Z,8.73
2019-03-24T12:38:37.235Z,7.07
2019-03-24T12:41:03.431Z,8.43
2019-03-24T12:43:29.602Z,6.90
2019-03-24T12:45:55.749Z,8.93
2019-03-24T12:48:22.060Z,6.47
2019-03-24T12:50:48.234Z,10.17
2019-03-24T12:53:14.391Z,5.63
2019-03-24T12:55:40.668Z,9.33
2019-03-24T12:58:06.877Z,4.60
2019-03-24T13:00:35.178Z,12.77
2019-03-24T13:03:01.375Z,6.57
2019-03-24T13:05:27.639Z,6.20
2019-03-24T13:07:55.095Z,5.40
2019-03-24T13:10:21.298Z,6.33
2019-03-24T13:12:47.461Z,8.13
2019-03-24T13:15:13.706Z,6.47
2019-03-24T13:17:39.922Z,5.83
2019-03-24T13:20:07.481Z,6.50
2019-03-24T13:22:33.748Z,7.77
2019-03-24T13:24:59.946Z,9.23
2019-03-24T13:27:26.105Z,5.10
2019-03-24T13:29:52.269Z,5.53
2019-03-24T13:32:18.463Z,6.67
2019-03-24T13:34:44.638Z,8.90
2019-03-24T13:37:10.810Z,8.80
2019-03-24T13:39:37.007Z,8.57
2019-03-24T13:42:03.170Z,8.63
2019-03-24T13:44:29.333Z,5.77
2019-03-24T13:46:55.537Z,8.37
2019-03-24T13:49:21.692Z,7.60
2019-03-24T13:51:47.853Z,8.73
2019-03-24T13:54:14.169Z,6.40
2019-03-24T13:56:40.630Z,5.53
2019-03-24T13:59:06.790Z,6.10
2019-03-24T14:01:32.995Z,10.00
2019-03-24T14:03:59.152Z,5.30
2019-03-24T14:06:25.308Z,7.23
2019-03-24T14:08:51.516Z,6.07
2019-03-24T14:11:17.683Z,6.73
2019-03-24T14:13:43.978Z,8.07
2019-03-24T14:16:10.194Z,5.73
2019-03-24T14:18:39.722Z,6.67
2019-03-24T14:21:05.883Z,7.43
2019-03-24T14:23:32.070Z,6.37
2019-03-24T14:25:58.331Z,5.73
2019-03-24T14:28:24.586Z,7.47
2019-03-24T14:30:50.779Z,6.23
2019-03-24T14:33:17.037Z,8.90
2019-03-24T14:35:43.373Z,7.77
2019-03-24T14:38:09.655Z,7.30
2019-03-24T14:40:36.047Z,5.93
2019-03-24T14:43:02.310Z,7.13
2019-03-24T14:45:28.504Z,10.40
2019-03-24T14:47:54.656Z,11.37
2019-03-24T14:50:20.817Z,6.33
2019-03-24T14:52:47.008Z,11.80
2019-03-24T14:55:13.170Z,7.37
2019-03-24T14:57:39.340Z,7.40
2019-03-24T15:00:07.139Z,7.10
2019-03-24T15:02:33.311Z,7.63
2019-03-24T15:04:59.472Z,8.07
2019-03-24T15:07:25.673Z,9.00
2019-03-24T15:09:51.841Z,7.23
2019-03-24T15:12:18.005Z,5.50
2019-03-24T15:14:44.204Z,6.23
2019-03-24T15:17:10.471Z,6.00
2019-03-24T15:19:36.623Z,6.17
2019-03-24T15:22:02.839Z,8.80
2019-03-24T15:24:28.994Z,7.33
2019-03-24T15:26:55.163Z,5.60
2019-03-24T15:29:21.360Z,6.87
2019-03-24T15:31:47.521Z,9.20
2019-03-24T15:34:13.705Z,8.60
2019-03-24T15:36:39.995Z,10.97
2019-03-24T15:39:07.978Z,7.17
2019-03-24T15:41:34.138Z,6.20
2019-03-24T15:44:00.335Z,7.03
2019-03-24T15:46:26.490Z,5.30
2019-03-24T15:48:52.752Z,13.30
2019-03-24T15:51:19.062Z,15.40
2019-03-24T15:53:45.225Z,10.00
2019-03-24T15:56:11.384Z,11.63
2019-03-24T15:58:37.712Z,8.93
2019-03-24T16:01:03.922Z,9.33
2019-03-24T16:03:30.087Z,8.43
2019-03-24T16:05:56.578Z,7.23
2019-03-24T16:08:22.741Z,7.17
2019-03-24T16:10:48.900Z,8.60
2019-03-24T16:13:15.109Z,9.80
2019-03-24T16:15:41.277Z,7.53
2019-03-24T16:18:07.434Z,8.23
2019-03-24T16:20:33.656Z,21.03
2019-03-24T16:22:59.810Z,9.10
2019-03-24T16:25:25.967Z,14.83
2019-03-24T16:27:52.288Z,9.37
2019-03-24T16:30:18.546Z,12.70
2019-03-24T16:32:44.711Z,13.73
2019-03-24T16:35:11.198Z,12.80
2019-03-24T16:37:37.463Z,12.97
2019-03-24T16:40:06.029Z,22.13
2019-03-24T16:42:32.231Z,19.20
2019-03-24T16:44:58.396Z,18.37
2019-03-24T16:47:24.547Z,14.90
2019-03-24T16:49:50.768Z,22.33
2019-03-24T16:52:16.913Z,19.37
2019-03-24T16:54:43.063Z,17.40
2019-03-24T16:57:09.265Z,19.10
2019-03-24T16:59:35.447Z,15.33
2019-03-24T17:02:01.731Z,14.60
2019-03-24T17:04:27.929Z,12.20
2019-03-24T17:06:54.196Z,11.93
2019-03-24T17:09:20.342Z,22.87
2019-03-24T17:11:46.567Z,27.60
2019-03-24T17:14:12.837Z,29.80
2019-03-24T17:16:39.098Z,26.23
2019-03-24T17:19:05.427Z,30.17
2019-03-24T17:21:31.579Z,33.50
2019-03-24T17:23:57.737Z,34.40
2019-03-24T17:26:23.952Z,42.47
2019-03-24T17:28:50.245Z,26.37
2019-03-24T17:31:16.422Z,33.63
2019-03-24T17:33:42.736Z,34.37
2019-03-24T17:36:08.888Z,46.77
2019-03-24T17:38:35.047Z,31.43
2019-03-24T17:41:01.343Z,15.33
2019-03-24T17:43:27.501Z,122.83
2019-03-24T17:45:53.660Z,39.17
2019-03-24T17:48:20.037Z,29.87
2019-03-24T17:50:46.196Z,30.27
2019-03-24T17:53:12.471Z,43.10
2019-03-24T17:55:38.673Z,162.03
2019-03-24T17:58:04.833Z,53.73
2019-03-24T18:00:36.096Z,52.07
2019-03-24T18:03:02.312Z,46.37
2019-03-24T18:05:28.609Z,57.33
2019-03-24T18:07:54.877Z,63.53
2019-03-24T18:10:21.083Z,63.83
2019-03-24T18:12:47.251Z,54.50
2019-03-24T18:15:13.555Z,49.97
2019-03-24T18:17:39.851Z,49.50
2019-03-24T18:20:06.909Z,38.90
2019-03-24T18:22:33.071Z,44.00
2019-03-24T18:24:59.270Z,34.33
2019-03-24T18:27:25.459Z,30.93
2019-03-24T18:29:51.625Z,20.97
2019-03-24T18:32:17.821Z,27.40
2019-03-24T18:34:43.992Z,33.67
2019-03-24T18:37:10.207Z,20.73
2019-03-24T18:39:36.450Z,21.57
2019-03-24T18:42:02.617Z,23.50
2019-03-24T18:44:28.785Z,22.73
2019-03-24T18:46:54.990Z,27.30
2019-03-24T18:49:21.250Z,22.63
2019-03-24T18:51:47.428Z,26.63
2019-03-24T18:54:13.729Z,19.40
2019-03-24T18:56:39.911Z,19.20
2019-03-24T18:59:06.062Z,17.10
2019-03-24T19:01:32.266Z,23.03
2019-03-24T19:03:58.449Z,27.57
2019-03-24T19:06:24.613Z,29.43
2019-03-24T19:08:50.803Z,18.57
2019-03-24T19:11:16.960Z,9.40
2019-03-24T19:13:43.222Z,14.37
2019-03-24T19:16:09.434Z,8.83
2019-03-24T19:18:35.599Z,17.77
2019-03-24T19:21:01.766Z,13.27
2019-03-24T19:23:28.072Z,13.87
2019-03-24T19:25:54.230Z,16.33
2019-03-24T19:28:20.387Z,15.73
2019-03-24T19:30:46.696Z,14.57
2019-03-24T19:33:12.864Z,15.70
2019-03-24T19:35:39.027Z,11.70
2019-03-24T19:38:05.228Z,8.37
2019-03-24T19:40:31.783Z,16.23
2019-03-24T19:42:58.811Z,13.87
2019-03-24T19:45:25.416Z,8.47
2019-03-24T19:47:52.776Z,16.37
2019-03-24T19:50:18.931Z,21.17
2019-03-24T19:52:45.184Z,26.60
2019-03-24T19:55:11.690Z,21.63
2019-03-24T19:57:37.847Z,21.13
2019-03-24T20:00:05.861Z,6.33
2019-03-24T20:02:32.022Z,13.77
2019-03-24T20:04:58.240Z,10.10
2019-03-24T20:07:24.431Z,9.90
2019-03-24T20:09:50.592Z,12.10
2019-03-24T20:12:16.850Z,13.90
2019-03-24T20:14:43.055Z,24.47
2019-03-24T20:17:09.208Z,18.47
2019-03-24T20:19:35.368Z,11.37
2019-03-24T20:22:01.578Z,10.60
2019-03-24T20:24:27.730Z,8.43
2019-03-24T20:26:53.888Z,9.00
2019-03-24T20:29:20.198Z,6.47
2019-03-24T20:31:46.463Z,7.33
2019-03-24T20:34:12.620Z,4.10
2019-03-24T20:36:38.980Z,5.37
2019-03-24T20:39:07.404Z,6.93
2019-03-24T20:41:33.716Z,6.80
2019-03-24T20:43:59.931Z,6.83
2019-03-24T20:46:26.194Z,7.37
2019-03-24T20:48:52.375Z,7.53
2019-03-24T20:51:18.564Z,8.37
2019-03-24T20:53:44.724Z,8.13
2019-03-24T20:56:10.889Z,10.03
2019-03-24T20:58:37.192Z,7.27
2019-03-24T21:01:03.451Z,8.67
2019-03-24T21:03:29.617Z,8.00
2019-03-24T21:05:55.861Z,7.07
2019-03-24T21:08:22.028Z,7.20
2019-03-24T21:10:48.303Z,6.83
2019-03-24T21:13:14.499Z,8.67
2019-03-24T21:15:40.661Z,7.37
2019-03-24T21:18:06.925Z,6.97
2019-03-24T21:20:33.215Z,6.30
2019-03-24T21:22:59.493Z,5.40
2019-03-24T21:25:25.645Z,8.13
2019-03-24T21:27:51.845Z,7.10
2019-03-24T21:30:21.609Z,5.30
2019-03-24T21:32:47.780Z,6.57
2019-03-24T21:35:13.977Z,4.73
2019-03-24T21:37:40.134Z,7.67
2019-03-24T21:40:06.710Z,7.43
2019-03-24T21:42:32.898Z,8.03
2019-03-24T21:44:59.066Z,9.77
2019-03-24T21:47:25.334Z,10.93
2019-03-24T21:49:51.562Z,9.03
2019-03-24T21:52:17.708Z,6.40
2019-03-24T21:54:43.871Z,8.23
2019-03-24T21:57:10.077Z,12.00
2019-03-24T21:59:36.236Z,7.73
2019-03-24T22:02:02.535Z,9.40
2019-03-24T22:04:28.901Z,6.50
2019-03-24T22:06:55.126Z,6.87
2019-03-24T22:09:21.296Z,6.50
2019-03-24T22:11:47.502Z,9.50
2019-03-24T22:14:15.519Z,14.33
2019-03-24T22:16:41.722Z,7.97
2019-03-24T22:19:07.928Z,7.77
2019-03-24T22:21:34.088Z,13.37
2019-03-24T22:24:00.244Z,12.37
2019-03-24T22:26:26.447Z,9.17
2019-03-24T22:28:52.627Z,11.27
2019-03-24T22:31:18.772Z,11.70
2019-03-24T22:33:45.077Z,12.63
2019-03-24T22:36:11.245Z,14.93
2019-03-24T22:38:37.403Z,17.43
2019-03-24T22:41:03.614Z,13.93
2019-03-24T22:43:29.776Z,13.60
2019-03-24T22:45:55.933Z,11.90
2019-03-24T22:48:22.128Z,11.67
2019-03-24T22:50:48.291Z,13.20
2019-03-24T22:53:14.443Z,15.43
2019-03-24T22:55:40.652Z,13.57
2019-03-24T22:58:06.910Z,14.93
2019-03-24T23:00:52.685Z,13.67
2019-03-24T23:03:18.859Z,10.03
2019-03-24T23:05:45.069Z,11.80
2019-03-24T23:08:11.397Z,10.40
2019-03-24T23:10:37.564Z,12.47
2019-03-24T23:13:03.725Z,12.10
2019-03-24T23:15:29.927Z,10.60
2019-03-24T23:17:56.212Z,17.77
2019-03-24T23:20:22.367Z,12.77
2019-03-24T23:22:48.588Z,18.23
2019-03-24T23:25:14.744Z,16.03
2019-03-24T23:27:40.998Z,14.77
2019-03-24T23:30:07.904Z,12.70
2019-03-24T23:32:34.062Z,14.23
2019-03-24T23:35:00.397Z,15.97
2019-03-24T23:37:26.660Z,9.73
2019-03-24T23:39:52.800Z,10.63
2019-03-24T23:42:19.259Z,16.33
2019-03-24T23:44:45.471Z,11.13
2019-03-24T23:47:11.691Z,9.83
2019-03-24T23:49:37.996Z,10.10
2019-03-24T23:52:04.212Z,13.53
2019-03-24T23:54:30.373Z,13.27
2019-03-24T23:56:56.533Z,11.17
2019-03-24T23:59:22.740Z,12.60
